createdAt,value
2016-09-29T00:00:55.676Z,0
2016-09-29T00:01:55.946Z,0
2016-09-29T00:02:55.871Z,0
2016-09-29T00:03:55.185Z,0
2016-09-29T00:04:56.934Z,0
2016-09-29T00:05:56.623Z,0
2016-09-29T00:06:56.174Z,0
2016-09-29T00:07:55.776Z,0
2016-09-29T00:08:56.331Z,0
2016-09-29T00:09:55.509Z,0
2016-09-29T00:10:56.521Z,0
2016-09-29T00:11:55.389Z,0
2016-09-29T00:12:55.914Z,0
2016-09-29T00:13:55.667Z,0
2016-09-29T00:14:56.381Z,0
2016-09-29T00:15:55.601Z,0
2016-09-29T00:16:55.732Z,0
2016-09-29T00:17:55.713Z,0
2016-09-29T00:18:55.304Z,0
2016-09-29T00:19:55.796Z,0
2016-09-29T00:20:55.973Z,0
2016-09-29T00:21:55.491Z,0
2016-09-29T00:22:55.877Z,0
2016-09-29T00:23:55.958Z,0
2016-09-29T00:24:56.835Z,0
2016-09-29T00:25:56.113Z,0
2016-09-29T00:26:55.765Z,0
2016-09-29T00:27:56.606Z,0
2016-09-29T00:28:56.672Z,0
2016-09-29T00:29:56.612Z,0
2016-09-29T00:30:55.807Z,0
2016-09-29T00:31:56.714Z,0
2016-09-29T00:32:56.578Z,0
2016-09-29T00:33:55.950Z,0
2016-09-29T00:34:56.775Z,0
2016-09-29T00:35:56.571Z,0
2016-09-29T00:36:55.961Z,0
2016-09-29T00:37:56.103Z,0
2016-09-29T00:38:57.015Z,0
2016-09-29T00:39:56.236Z,0
2016-09-29T00:40:56.209Z,0
2016-09-29T00:41:56.475Z,0
2016-09-29T00:42:56.446Z,0
2016-09-29T00:43:56.277Z,0
2016-09-29T00:44:57.018Z,0
2016-09-29T00:45:56.868Z,0
2016-09-29T00:46:57.490Z,0
2016-09-29T00:47:56.777Z,0
2016-09-29T00:48:56.936Z,0
2016-09-29T00:49:56.240Z,0
2016-09-29T00:50:57.691Z,0
2016-09-29T00:51:56.534Z,0
2016-09-29T00:52:56.535Z,0
2016-09-29T00:53:58.083Z,0
2016-09-29T00:54:56.253Z,0
2016-09-29T00:55:56.649Z,0
2016-09-29T00:56:56.291Z,0
2016-09-29T00:57:58.117Z,0
2016-09-29T00:58:55.445Z,0
2016-09-29T00:59:56.561Z,0
2016-09-29T01:00:56.482Z,0
2016-09-29T01:01:57.203Z,0
2016-09-29T01:02:57.275Z,0
2016-09-29T01:03:56.800Z,0
2016-09-29T01:04:57.592Z,0
2016-09-29T01:05:57.978Z,0
2016-09-29T01:06:55.938Z,0
2016-09-29T01:07:56.870Z,0
2016-09-29T01:08:58.245Z,0
2016-09-29T01:09:57.903Z,0
2016-09-29T01:10:57.922Z,0
2016-09-29T01:11:56.937Z,0
2016-09-29T01:12:57.309Z,0
2016-09-29T01:13:57.449Z,0
2016-09-29T01:14:57.101Z,0
2016-09-29T01:15:57.825Z,0
2016-09-29T01:16:56.703Z,0
2016-09-29T01:17:57.275Z,0
2016-09-29T01:18:56.374Z,0
2016-09-29T01:19:57.993Z,0
2016-09-29T01:20:57.420Z,0
2016-09-29T01:21:57.268Z,0
2016-09-29T01:22:57.041Z,0
2016-09-29T01:23:58.409Z,0
2016-09-29T01:24:57.555Z,0
2016-09-29T01:25:57.982Z,0
2016-09-29T01:26:57.199Z,0
2016-09-29T01:27:57.433Z,0
2016-09-29T01:28:58.510Z,0
2016-09-29T01:29:58.949Z,0
2016-09-29T01:30:57.238Z,0
2016-09-29T01:31:56.954Z,0
2016-09-29T01:32:58.322Z,0
2016-09-29T01:33:58.563Z,0
2016-09-29T01:34:58.092Z,0
2016-09-29T01:35:57.792Z,0
2016-09-29T01:36:58.762Z,0
2016-09-29T01:37:58.610Z,0
2016-09-29T01:38:58.452Z,0
2016-09-29T01:39:57.073Z,0
2016-09-29T01:40:59.159Z,0
2016-09-29T01:41:57.799Z,0
2016-09-29T01:42:57.930Z,0
2016-09-29T01:43:59.159Z,0
2016-09-29T01:44:58.148Z,0
2016-09-29T01:45:58.888Z,0
2016-09-29T01:46:57.908Z,0
2016-09-29T01:47:57.872Z,0
2016-09-29T01:48:58.366Z,0
2016-09-29T01:49:57.835Z,0
2016-09-29T01:50:59.018Z,0
2016-09-29T01:51:58.276Z,0
2016-09-29T01:52:59.117Z,0
2016-09-29T01:53:58.339Z,0
2016-09-29T01:54:58.507Z,0
2016-09-29T01:55:58.441Z,0
2016-09-29T01:56:58.421Z,0
2016-09-29T01:57:59.455Z,0
2016-09-29T01:58:58.413Z,0
2016-09-29T01:59:58.856Z,0
2016-09-29T02:00:59.014Z,0
2016-09-29T02:01:59.415Z,0
2016-09-29T02:02:58.208Z,0
2016-09-29T02:03:59.425Z,0
2016-09-29T02:04:58.497Z,0
2016-09-29T02:05:58.394Z,0
2016-09-29T02:06:58.186Z,0
2016-09-29T02:07:58.535Z,0
2016-09-29T02:08:59.133Z,0
2016-09-29T02:09:59.003Z,0
2016-09-29T02:10:58.486Z,0
2016-09-29T02:11:57.999Z,0
2016-09-29T02:12:58.858Z,0
2016-09-29T02:13:58.805Z,0
2016-09-29T02:14:59.461Z,0
2016-09-29T02:15:59.055Z,0
2016-09-29T02:16:59.615Z,0
2016-09-29T02:17:59.674Z,0
2016-09-29T02:18:59.021Z,0
2016-09-29T02:19:59.153Z,0
2016-09-29T02:20:58.817Z,0
2016-09-29T02:21:59.360Z,0
2016-09-29T02:22:59.349Z,0
2016-09-29T02:23:59.347Z,0
2016-09-29T02:24:58.466Z,0
2016-09-29T02:25:58.671Z,0
2016-09-29T02:26:58.110Z,0
2016-09-29T02:28:00.454Z,0
2016-09-29T02:28:59.031Z,0
2016-09-29T02:29:58.315Z,0
2016-09-29T02:30:59.556Z,0
2016-09-29T02:31:59.792Z,0
2016-09-29T02:32:59.449Z,0
2016-09-29T02:33:59.057Z,0
2016-09-29T02:34:58.124Z,0
2016-09-29T02:35:59.287Z,0
2016-09-29T02:36:58.678Z,0
2016-09-29T02:37:58.521Z,0
2016-09-29T02:38:58.127Z,0
2016-09-29T02:39:58.019Z,0
2016-09-29T02:40:58.786Z,0
2016-09-29T02:41:58.010Z,0
2016-09-29T02:42:59.326Z,0
2016-09-29T02:43:58.602Z,0
2016-09-29T02:44:59.367Z,0
2016-09-29T02:45:59.115Z,0
2016-09-29T02:46:58.923Z,0
2016-09-29T02:47:59.275Z,0
2016-09-29T02:49:00.296Z,0
2016-09-29T02:50:00.280Z,0
2016-09-29T02:50:58.966Z,0
2016-09-29T02:51:59.750Z,0
2016-09-29T02:52:59.268Z,0
2016-09-29T02:54:00.613Z,0
2016-09-29T02:54:59.801Z,0
2016-09-29T02:56:00.721Z,0
2016-09-29T02:56:58.690Z,0
2016-09-29T02:57:58.873Z,0
2016-09-29T02:58:59.801Z,0
2016-09-29T02:59:59.220Z,0
2016-09-29T03:00:59.604Z,0
2016-09-29T03:01:59.571Z,0
2016-09-29T03:03:00.099Z,0
2016-09-29T03:03:59.145Z,0
2016-09-29T03:04:58.940Z,0
2016-09-29T03:05:59.410Z,0
2016-09-29T03:06:59.640Z,0
2016-09-29T03:07:59.339Z,0
2016-09-29T03:08:59.101Z,0
2016-09-29T03:09:59.350Z,0
2016-09-29T03:11:00.713Z,0
2016-09-29T03:11:59.831Z,0
2016-09-29T03:13:00.830Z,0
2016-09-29T03:13:59.877Z,0
2016-09-29T03:14:59.616Z,0
2016-09-29T03:15:59.260Z,0
2016-09-29T03:17:00.993Z,0
2016-09-29T03:18:00.620Z,0
2016-09-29T03:18:59.202Z,0
2016-09-29T03:20:00.487Z,0
2016-09-29T03:20:59.883Z,0
2016-09-29T03:21:59.902Z,0
2016-09-29T03:23:00.591Z,0
2016-09-29T03:23:59.303Z,0
2016-09-29T03:25:00.542Z,0
2016-09-29T03:25:59.571Z,0
2016-09-29T03:27:01.068Z,0
2016-09-29T03:28:00.298Z,0
2016-09-29T03:29:01.443Z,0
2016-09-29T03:30:00.816Z,0
2016-09-29T03:31:01.176Z,0
2016-09-29T03:32:00.436Z,0
2016-09-29T03:32:59.389Z,0
2016-09-29T03:34:01.432Z,0
2016-09-29T03:35:00.709Z,0
2016-09-29T03:36:01.431Z,0
2016-09-29T03:37:00.932Z,0
2016-09-29T03:38:02.578Z,0
2016-09-29T03:39:01.043Z,0
2016-09-29T03:40:01.414Z,0
2016-09-29T03:41:00.902Z,0
2016-09-29T03:42:00.872Z,0
2016-09-29T03:43:00.674Z,0
2016-09-29T03:43:59.691Z,0
2016-09-29T03:45:00.974Z,0
2016-09-29T03:46:00.450Z,0
2016-09-29T03:46:59.830Z,0
2016-09-29T03:48:00.899Z,0
2016-09-29T03:49:01.116Z,0
2016-09-29T03:50:01.767Z,0
2016-09-29T03:51:01.336Z,0
2016-09-29T03:52:00.594Z,0
2016-09-29T03:52:59.769Z,0
2016-09-29T03:54:00.234Z,0
2016-09-29T03:55:00.771Z,0
2016-09-29T03:56:01.060Z,0
2016-09-29T03:57:00.796Z,0
2016-09-29T03:58:02.009Z,0
2016-09-29T03:59:01.307Z,0
2016-09-29T04:00:01.288Z,0
2016-09-29T04:01:01.184Z,0
2016-09-29T04:02:01.739Z,0
2016-09-29T04:03:01.654Z,0
2016-09-29T04:03:59.834Z,0
2016-09-29T04:05:00.771Z,0
2016-09-29T04:06:00.927Z,0
2016-09-29T04:07:03.103Z,0
2016-09-29T04:08:00.838Z,0
2016-09-29T04:09:01.004Z,0
2016-09-29T04:10:01.044Z,0
2016-09-29T04:11:00.486Z,0
2016-09-29T04:12:00.820Z,0
2016-09-29T04:13:00.563Z,0
2016-09-29T04:14:00.795Z,0
2016-09-29T04:15:00.746Z,0
2016-09-29T04:16:00.786Z,0
2016-09-29T04:17:01.103Z,0
2016-09-29T04:18:02.196Z,0
2016-09-29T04:19:00.737Z,0
2016-09-29T04:20:01.801Z,0
2016-09-29T04:21:01.253Z,0
2016-09-29T04:22:01.215Z,0
2016-09-29T04:23:01.449Z,0
2016-09-29T04:24:00.818Z,0
2016-09-29T04:25:03.220Z,0
2016-09-29T04:26:00.721Z,0
2016-09-29T04:27:01.113Z,0
2016-09-29T04:28:02.650Z,0
2016-09-29T04:29:01.684Z,0
2016-09-29T04:30:01.456Z,0
2016-09-29T04:31:01.219Z,0
2016-09-29T04:32:00.820Z,0
2016-09-29T04:33:01.135Z,0
2016-09-29T04:34:01.097Z,0
2016-09-29T04:35:01.326Z,0
2016-09-29T04:36:03.035Z,0
2016-09-29T04:37:01.142Z,0
2016-09-29T04:38:01.809Z,0
2016-09-29T04:39:01.550Z,0
2016-09-29T04:40:02.490Z,0
2016-09-29T04:41:00.022Z,0
2016-09-29T04:42:00.096Z,0
2016-09-29T04:43:02.139Z,0
2016-09-29T04:44:02.049Z,0
2016-09-29T04:45:01.626Z,0
2016-09-29T04:46:02.588Z,0
2016-09-29T04:47:02.004Z,0
2016-09-29T04:48:01.533Z,0
2016-09-29T04:49:02.259Z,4
2016-09-29T04:50:00.757Z,4
2016-09-29T04:51:03.057Z,4
2016-09-29T04:52:01.078Z,0
2016-09-29T04:53:01.978Z,4
2016-09-29T04:54:01.788Z,4
2016-09-29T04:55:01.448Z,4
2016-09-29T04:56:01.160Z,8
2016-09-29T04:57:01.190Z,8
2016-09-29T04:58:02.240Z,8
2016-09-29T04:59:01.162Z,12
2016-09-29T05:00:01.123Z,16
2016-09-29T05:01:01.588Z,20
2016-09-29T05:02:01.429Z,20
2016-09-29T05:03:01.577Z,24
2016-09-29T05:04:02.606Z,32
2016-09-29T05:05:02.900Z,36
2016-09-29T05:06:02.071Z,40
2016-09-29T05:07:01.981Z,48
2016-09-29T05:08:02.788Z,60
2016-09-29T05:09:01.839Z,68
2016-09-29T05:10:01.862Z,84
2016-09-29T05:11:01.758Z,100
2016-09-29T05:12:01.957Z,116
2016-09-29T05:13:00.998Z,132
2016-09-29T05:14:01.506Z,148
2016-09-29T05:15:01.801Z,164
2016-09-29T05:16:03.105Z,184
2016-09-29T05:17:04.428Z,204
2016-09-29T05:18:02.106Z,220
2016-09-29T05:19:02.285Z,252
2016-09-29T05:20:01.989Z,280
2016-09-29T05:21:03.695Z,316
2016-09-29T05:22:02.521Z,352
2016-09-29T05:23:02.087Z,396
2016-09-29T05:24:03.146Z,456
2016-09-29T05:25:03.028Z,516
2016-09-29T05:26:04.006Z,588
2016-09-29T05:27:02.041Z,660
2016-09-29T05:28:04.346Z,736
2016-09-29T05:29:02.902Z,804
2016-09-29T05:30:02.468Z,884
2016-09-29T05:31:02.922Z,960
2016-09-29T05:32:02.695Z,1040
2016-09-29T05:33:02.895Z,1124
2016-09-29T05:34:02.527Z,1204
2016-09-29T05:35:02.309Z,1284
2016-09-29T05:36:03.879Z,1368
2016-09-29T05:37:02.051Z,1448
2016-09-29T05:38:02.228Z,1528
2016-09-29T05:39:04.091Z,1612
2016-09-29T05:40:02.715Z,1700
2016-09-29T05:41:01.667Z,1804
2016-09-29T05:42:02.717Z,1924
2016-09-29T05:43:03.038Z,2048
2016-09-29T05:44:02.931Z,2192
2016-09-29T05:45:02.499Z,2340
2016-09-29T05:46:02.558Z,2492
2016-09-29T05:47:03.776Z,2640
2016-09-29T05:48:03.184Z,2792
2016-09-29T05:49:04.154Z,2968
2016-09-29T05:50:05.355Z,3160
2016-09-29T05:51:03.612Z,3344
2016-09-29T05:52:02.783Z,3516
2016-09-29T05:53:03.563Z,3668
2016-09-29T05:54:02.390Z,3800
2016-09-29T05:55:04.522Z,3904
2016-09-29T05:56:03.254Z,3972
2016-09-29T05:57:03.240Z,4012
2016-09-29T05:58:03.221Z,4032
2016-09-29T05:59:02.518Z,4044
2016-09-29T06:00:04.606Z,4048
2016-09-29T06:01:03.684Z,4056
2016-09-29T06:02:03.082Z,4048
2016-09-29T06:03:03.684Z,4032
2016-09-29T06:04:03.059Z,4040
2016-09-29T06:05:03.299Z,4032
2016-09-29T06:06:03.590Z,4032
2016-09-29T06:07:03.744Z,4048
2016-09-29T06:08:03.577Z,4048
2016-09-29T06:09:03.022Z,4056
2016-09-29T06:10:03.883Z,4080
2016-09-29T06:11:03.700Z,4080
2016-09-29T06:12:03.731Z,4060
2016-09-29T06:13:03.116Z,4040
2016-09-29T06:14:04.507Z,4008
2016-09-29T06:15:04.733Z,3980
2016-09-29T06:16:02.921Z,4004
2016-09-29T06:17:03.674Z,4048
2016-09-29T06:18:03.721Z,4128
2016-09-29T06:19:04.078Z,4216
2016-09-29T06:20:03.831Z,4284
2016-09-29T06:21:04.802Z,4352
2016-09-29T06:22:03.996Z,4424
2016-09-29T06:23:04.349Z,4508
2016-09-29T06:24:03.569Z,4608
2016-09-29T06:25:04.016Z,4720
2016-09-29T06:26:03.989Z,4824
2016-09-29T06:27:03.771Z,4916
2016-09-29T06:28:04.120Z,4988
2016-09-29T06:29:03.637Z,5044
2016-09-29T06:30:04.816Z,5076
2016-09-29T06:31:04.390Z,5080
2016-09-29T06:32:04.472Z,5048
2016-09-29T06:33:03.400Z,4984
2016-09-29T06:34:04.007Z,4884
2016-09-29T06:35:03.653Z,4788
2016-09-29T06:36:03.991Z,4692
2016-09-29T06:37:03.920Z,4604
2016-09-29T06:38:04.057Z,4544
2016-09-29T06:39:03.272Z,4516
2016-09-29T06:40:03.974Z,4496
2016-09-29T06:41:05.427Z,4472
2016-09-29T06:42:03.233Z,4468
2016-09-29T06:43:04.395Z,4492
2016-09-29T06:44:04.686Z,4516
2016-09-29T06:45:04.192Z,4544
2016-09-29T06:46:04.903Z,4568
2016-09-29T06:47:03.212Z,4600
2016-09-29T06:48:04.226Z,4648
2016-09-29T06:49:04.258Z,4716
2016-09-29T06:50:04.914Z,4816
2016-09-29T06:51:04.251Z,4944
2016-09-29T06:52:03.834Z,5100
2016-09-29T06:53:03.687Z,5292
2016-09-29T06:54:05.278Z,5492
2016-09-29T06:55:03.976Z,5640
2016-09-29T06:56:03.877Z,5848
2016-09-29T06:57:03.934Z,6128
2016-09-29T06:58:03.723Z,6708
2016-09-29T06:59:04.592Z,7224
2016-09-29T07:00:04.809Z,7124
2016-09-29T07:01:04.070Z,7832
2016-09-29T07:02:04.655Z,8208
2016-09-29T07:03:04.586Z,7844
2016-09-29T07:04:05.001Z,7296
2016-09-29T07:05:04.576Z,7416
2016-09-29T07:06:05.992Z,7624
2016-09-29T07:07:04.583Z,7068
2016-09-29T07:08:04.987Z,7332
2016-09-29T07:09:05.458Z,7264
2016-09-29T07:10:04.383Z,7796
2016-09-29T07:11:04.281Z,7776
2016-09-29T07:12:04.505Z,8460
2016-09-29T07:13:03.973Z,9152
2016-09-29T07:14:05.491Z,9656
2016-09-29T07:15:04.631Z,10060
2016-09-29T07:16:04.879Z,10508
2016-09-29T07:17:05.560Z,10580
2016-09-29T07:18:04.867Z,10908
2016-09-29T07:19:05.004Z,11036
2016-09-29T07:20:04.146Z,11216
2016-09-29T07:21:06.039Z,11920
2016-09-29T07:22:04.943Z,11664
2016-09-29T07:23:04.966Z,11820
2016-09-29T07:24:05.984Z,12132
2016-09-29T07:25:04.529Z,11956
2016-09-29T07:26:06.194Z,12052
2016-09-29T07:27:05.778Z,12392
2016-09-29T07:28:05.028Z,12132
2016-09-29T07:29:05.320Z,12104
2016-09-29T07:30:05.869Z,12216
2016-09-29T07:31:05.336Z,12736
2016-09-29T07:32:05.693Z,13096
2016-09-29T07:33:05.809Z,13744
2016-09-29T07:34:05.991Z,15200
2016-09-29T07:35:05.452Z,14840
2016-09-29T07:36:05.309Z,14596
2016-09-29T07:37:04.850Z,13944
2016-09-29T07:38:06.441Z,13988
2016-09-29T07:39:05.614Z,13680
2016-09-29T07:40:05.480Z,14400
2016-09-29T07:41:05.822Z,14600
2016-09-29T07:42:05.318Z,14112
2016-09-29T07:43:05.268Z,14080
2016-09-29T07:44:04.239Z,14224
2016-09-29T07:45:05.900Z,14776
2016-09-29T07:46:06.049Z,14952
2016-09-29T07:47:05.587Z,15148
2016-09-29T07:48:06.273Z,14820
2016-09-29T07:49:05.053Z,14792
2016-09-29T07:50:04.733Z,14264
2016-09-29T07:51:04.879Z,14188
2016-09-29T07:52:05.290Z,14176
2016-09-29T07:53:06.312Z,14184
2016-09-29T07:54:07.426Z,14464
2016-09-29T07:55:05.762Z,14812
2016-09-29T07:56:05.930Z,14808
2016-09-29T07:57:06.388Z,14824
2016-09-29T07:58:06.045Z,14788
2016-09-29T07:59:06.389Z,14720
2016-09-29T08:00:06.037Z,14708
2016-09-29T08:01:06.628Z,14728
2016-09-29T08:02:06.646Z,14736
2016-09-29T08:03:06.581Z,14828
2016-09-29T08:04:07.152Z,14992
2016-09-29T08:05:06.963Z,15208
2016-09-29T08:06:07.257Z,15792
2016-09-29T08:07:05.950Z,16704
2016-09-29T08:08:05.898Z,16512
2016-09-29T08:09:06.870Z,16044
2016-09-29T08:10:05.927Z,15824
2016-09-29T08:11:05.643Z,15612
2016-09-29T08:12:06.736Z,15408
2016-09-29T08:13:05.671Z,15276
2016-09-29T08:14:06.054Z,15456
2016-09-29T08:15:06.150Z,15728
2016-09-29T08:16:05.929Z,16012
2016-09-29T08:17:05.827Z,16736
2016-09-29T08:18:05.421Z,17248
2016-09-29T08:19:06.113Z,17472
2016-09-29T08:20:07.026Z,17216
2016-09-29T08:21:06.407Z,16928
2016-09-29T08:22:06.504Z,16736
2016-09-29T08:23:06.908Z,16512
2016-09-29T08:24:06.213Z,16052
2016-09-29T08:25:06.715Z,15660
2016-09-29T08:26:05.799Z,15200
2016-09-29T08:27:06.135Z,14744
2016-09-29T08:28:06.879Z,14264
2016-09-29T08:29:06.512Z,13808
2016-09-29T08:30:06.102Z,13356
2016-09-29T08:31:06.929Z,13092
2016-09-29T08:32:06.466Z,13052
2016-09-29T08:33:06.504Z,13200
2016-09-29T08:34:06.287Z,13380
2016-09-29T08:35:06.085Z,13692
2016-09-29T08:36:07.158Z,14424
2016-09-29T08:37:06.391Z,15544
2016-09-29T08:38:06.491Z,15772
2016-09-29T08:39:07.538Z,16036
2016-09-29T08:40:06.930Z,17376
2016-09-29T08:41:07.132Z,18144
2016-09-29T08:42:06.784Z,17920
2016-09-29T08:43:07.452Z,17696
2016-09-29T08:44:07.067Z,16456
2016-09-29T08:45:07.556Z,16768
2016-09-29T08:46:08.039Z,16672
2016-09-29T08:47:07.357Z,17280
2016-09-29T08:48:06.689Z,17920
2016-09-29T08:49:07.230Z,18656
2016-09-29T08:50:07.261Z,19584
2016-09-29T08:51:06.740Z,20256
2016-09-29T08:52:07.773Z,20704
2016-09-29T08:53:07.810Z,21120
2016-09-29T08:54:06.154Z,20608
2016-09-29T08:55:06.801Z,20352
2016-09-29T08:56:08.007Z,20672
2016-09-29T08:57:06.564Z,21152
2016-09-29T08:58:08.139Z,21824
2016-09-29T08:59:07.709Z,22112
2016-09-29T09:00:07.894Z,22848
2016-09-29T09:01:07.191Z,23200
2016-09-29T09:02:06.855Z,23040
2016-09-29T09:03:07.556Z,22752
2016-09-29T09:04:07.976Z,22848
2016-09-29T09:05:07.445Z,21984
2016-09-29T09:06:07.090Z,21536
2016-09-29T09:07:08.352Z,21536
2016-09-29T09:08:07.385Z,21856
2016-09-29T09:09:07.500Z,21664
2016-09-29T09:10:06.628Z,21472
2016-09-29T09:11:06.835Z,21536
2016-09-29T09:12:07.489Z,21504
2016-09-29T09:13:08.045Z,21216
2016-09-29T09:14:07.986Z,21184
2016-09-29T09:15:06.801Z,20768
2016-09-29T09:16:07.130Z,20544
2016-09-29T09:17:07.229Z,19200
2016-09-29T09:18:07.547Z,18912
2016-09-29T09:19:07.683Z,18720
2016-09-29T09:20:06.781Z,17888
2016-09-29T09:21:07.352Z,17824
2016-09-29T09:22:07.754Z,18240
2016-09-29T09:23:07.381Z,19008
2016-09-29T09:24:07.752Z,19936
2016-09-29T09:25:08.445Z,20000
2016-09-29T09:26:07.813Z,19616
2016-09-29T09:27:07.818Z,20032
2016-09-29T09:28:08.175Z,20320
2016-09-29T09:29:09.002Z,20608
2016-09-29T09:30:08.478Z,20288
2016-09-29T09:31:08.083Z,20704
2016-09-29T09:32:08.451Z,20320
2016-09-29T09:33:08.420Z,19680
2016-09-29T09:34:09.173Z,18624
2016-09-29T09:35:07.989Z,18048
2016-09-29T09:36:07.705Z,17216
2016-09-29T09:37:09.657Z,15400
2016-09-29T09:38:08.038Z,14796
2016-09-29T09:39:07.409Z,15248
2016-09-29T09:40:07.864Z,15660
2016-09-29T09:41:09.357Z,14304
2016-09-29T09:42:08.307Z,14172
2016-09-29T09:43:08.491Z,14688
2016-09-29T09:44:08.290Z,15264
2016-09-29T09:45:07.814Z,14592
2016-09-29T09:46:08.683Z,15272
2016-09-29T09:47:08.502Z,16012
2016-09-29T09:48:09.057Z,16168
2016-09-29T09:49:08.319Z,16604
2016-09-29T09:50:09.057Z,16732
2016-09-29T09:51:09.662Z,17216
2016-09-29T09:52:09.739Z,15700
2016-09-29T09:53:08.957Z,16532
2016-09-29T09:54:08.816Z,16084
2016-09-29T09:55:09.433Z,16468
2016-09-29T09:56:09.099Z,17920
2016-09-29T09:57:09.674Z,18592
2016-09-29T09:58:09.097Z,18496
2016-09-29T09:59:08.267Z,17536
2016-09-29T10:00:09.412Z,18432
2016-09-29T10:01:08.707Z,18304
2016-09-29T10:02:09.013Z,18080
2016-09-29T10:03:09.138Z,16560
2016-09-29T10:04:08.384Z,17344
2016-09-29T10:05:08.323Z,17696
2016-09-29T10:06:08.588Z,17728
2016-09-29T10:07:09.845Z,17760
2016-09-29T10:08:09.233Z,17920
2016-09-29T10:09:09.810Z,16960
2016-09-29T10:10:09.348Z,18208
2016-09-29T10:11:10.013Z,17536
2016-09-29T10:12:08.990Z,17536
2016-09-29T10:13:09.554Z,15884
2016-09-29T10:14:09.004Z,15524
2016-09-29T10:15:09.525Z,17152
2016-09-29T10:16:09.457Z,15980
2016-09-29T10:17:10.395Z,14868
2016-09-29T10:18:09.063Z,14096
2016-09-29T10:19:08.170Z,12976
2016-09-29T10:20:09.552Z,13128
2016-09-29T10:21:09.075Z,14740
2016-09-29T10:22:08.589Z,15344
2016-09-29T10:23:10.739Z,15416
2016-09-29T10:24:10.125Z,15732
2016-09-29T10:25:09.558Z,15572
2016-09-29T10:26:08.960Z,15632
2016-09-29T10:27:09.293Z,16108
2016-09-29T10:28:09.597Z,14880
2016-09-29T10:29:09.631Z,15676
2016-09-29T10:30:11.234Z,15692
2016-09-29T10:31:11.230Z,16572
2016-09-29T10:32:09.452Z,16404
2016-09-29T10:33:09.776Z,16160
2016-09-29T10:34:09.143Z,15856
2016-09-29T10:35:09.474Z,14708
2016-09-29T10:36:09.758Z,17312
2016-09-29T10:37:11.199Z,17888
2016-09-29T10:38:09.546Z,17792
2016-09-29T10:39:09.808Z,17568
2016-09-29T10:40:11.352Z,17600
2016-09-29T10:41:09.683Z,17536
2016-09-29T10:42:09.495Z,17504
2016-09-29T10:43:09.914Z,17920
2016-09-29T10:44:09.622Z,17792
2016-09-29T10:45:09.733Z,17824
2016-09-29T10:46:09.446Z,18240
2016-09-29T10:47:10.017Z,17984
2016-09-29T10:48:10.388Z,18176
2016-09-29T10:49:11.121Z,18432
2016-09-29T10:50:10.195Z,17632
2016-09-29T10:51:10.628Z,17888
2016-09-29T10:52:10.930Z,17824
2016-09-29T10:53:10.478Z,16456
2016-09-29T10:54:10.754Z,16648
2016-09-29T10:55:10.579Z,17312
2016-09-29T10:56:09.810Z,17376
2016-09-29T10:57:10.209Z,17088
2016-09-29T10:58:09.665Z,17344
2016-09-29T10:59:11.187Z,17088
2016-09-29T11:00:12.306Z,16080
2016-09-29T11:01:12.005Z,15388
2016-09-29T11:02:10.866Z,14840
2016-09-29T11:03:10.858Z,12952
2016-09-29T11:04:11.472Z,13272
2016-09-29T11:05:10.881Z,12332
2016-09-29T11:06:11.857Z,11904
2016-09-29T11:07:10.616Z,12228
2016-09-29T11:08:10.978Z,13572
2016-09-29T11:09:11.332Z,10796
2016-09-29T11:10:11.736Z,10320
2016-09-29T11:11:11.511Z,12428
2016-09-29T11:12:11.575Z,11560
2016-09-29T11:13:10.663Z,10952
2016-09-29T11:14:11.685Z,9736
2016-09-29T11:15:12.312Z,12460
2016-09-29T11:16:11.896Z,9364
2016-09-29T11:17:11.055Z,10408
2016-09-29T11:18:12.455Z,10536
2016-09-29T11:19:10.633Z,9152
2016-09-29T11:20:11.429Z,12136
2016-09-29T11:21:11.290Z,10016
2016-09-29T11:22:11.161Z,12004
2016-09-29T11:23:11.262Z,11344
2016-09-29T11:24:11.368Z,11688
2016-09-29T11:25:11.217Z,11288
2016-09-29T11:26:10.831Z,10920
2016-09-29T11:27:11.784Z,10588
2016-09-29T11:28:11.020Z,10104
2016-09-29T11:29:11.713Z,9096
2016-09-29T11:30:11.389Z,9688
2016-09-29T11:31:11.497Z,10192
2016-09-29T11:32:11.658Z,9828
2016-09-29T11:33:13.031Z,9500
2016-09-29T11:34:11.574Z,10036
2016-09-29T11:35:12.677Z,10184
2016-09-29T11:36:12.022Z,10192
2016-09-29T11:37:12.929Z,10224
2016-09-29T11:38:12.311Z,10236
2016-09-29T11:39:12.605Z,10248
2016-09-29T11:40:12.415Z,10308
2016-09-29T11:41:12.230Z,10332
2016-09-29T11:42:11.157Z,10156
2016-09-29T11:43:11.585Z,10184
2016-09-29T11:44:12.342Z,10428
2016-09-29T11:45:11.877Z,9500
2016-09-29T11:46:12.215Z,10084
2016-09-29T11:47:11.803Z,10776
2016-09-29T11:48:11.907Z,11180
2016-09-29T11:49:12.359Z,11320
2016-09-29T11:50:12.674Z,11692
2016-09-29T11:51:11.262Z,11780
2016-09-29T11:52:12.181Z,11568
2016-09-29T11:53:11.480Z,11304
2016-09-29T11:54:13.502Z,11056
2016-09-29T11:55:11.113Z,10852
2016-09-29T11:56:11.589Z,10728
2016-09-29T11:57:12.660Z,10520
2016-09-29T11:58:12.595Z,10404
2016-09-29T11:59:11.511Z,10388
2016-09-29T12:00:12.789Z,10400
2016-09-29T12:01:12.061Z,10436
2016-09-29T12:02:14.505Z,10436
2016-09-29T12:03:12.566Z,10536
2016-09-29T12:04:12.348Z,10552
2016-09-29T12:05:12.161Z,10620
2016-09-29T12:06:12.118Z,10652
2016-09-29T12:07:12.697Z,10540
2016-09-29T12:08:13.462Z,10504
2016-09-29T12:09:12.141Z,10728
2016-09-29T12:10:12.269Z,11080
2016-09-29T12:11:13.938Z,11028
2016-09-29T12:12:12.943Z,10832
2016-09-29T12:13:15.011Z,10792
2016-09-29T12:14:12.213Z,10832
2016-09-29T12:15:12.004Z,10812
2016-09-29T12:16:14.041Z,10712
2016-09-29T12:17:13.481Z,10612
2016-09-29T12:18:12.908Z,10644
2016-09-29T12:19:13.535Z,10728
2016-09-29T12:20:13.486Z,10780
2016-09-29T12:21:12.775Z,10868
2016-09-29T12:22:12.758Z,11100
2016-09-29T12:23:14.381Z,11288
2016-09-29T12:24:13.753Z,11592
2016-09-29T12:25:13.668Z,11956
2016-09-29T12:26:13.408Z,12296
2016-09-29T12:27:13.306Z,12256
2016-09-29T12:28:12.937Z,11148
2016-09-29T12:29:12.862Z,13088
2016-09-29T12:30:14.713Z,15060
2016-09-29T12:31:13.922Z,16124
2016-09-29T12:32:12.719Z,16832
2016-09-29T12:33:13.020Z,16428
2016-09-29T12:34:15.220Z,15328
2016-09-29T12:35:14.271Z,13528
2016-09-29T12:36:13.632Z,12712
2016-09-29T12:37:13.403Z,12592
2016-09-29T12:38:13.552Z,12744
2016-09-29T12:39:14.048Z,11948
2016-09-29T12:40:12.897Z,10792
2016-09-29T12:41:14.427Z,11692
2016-09-29T12:42:14.034Z,14148
2016-09-29T12:43:13.951Z,13412
2016-09-29T12:44:14.561Z,12428
2016-09-29T12:45:13.601Z,10044
2016-09-29T12:46:14.120Z,8076
2016-09-29T12:47:14.026Z,7172
2016-09-29T12:48:14.439Z,7120
2016-09-29T12:49:14.138Z,7420
2016-09-29T12:50:14.691Z,8068
2016-09-29T12:51:13.627Z,8392
2016-09-29T12:52:14.015Z,9472
2016-09-29T12:53:13.897Z,10876
2016-09-29T12:54:13.947Z,11488
2016-09-29T12:55:14.108Z,11392
2016-09-29T12:56:13.971Z,11232
2016-09-29T12:57:14.350Z,11196
2016-09-29T12:58:14.706Z,10916
2016-09-29T12:59:14.040Z,10836
2016-09-29T13:00:14.539Z,10604
2016-09-29T13:01:14.437Z,12392
2016-09-29T13:02:15.372Z,12348
2016-09-29T13:03:14.784Z,13996
2016-09-29T13:04:15.024Z,14424
2016-09-29T13:05:14.744Z,14040
2016-09-29T13:06:14.786Z,13332
2016-09-29T13:07:14.882Z,12676
2016-09-29T13:08:14.587Z,12152
2016-09-29T13:09:14.098Z,11656
2016-09-29T13:10:13.779Z,11092
2016-09-29T13:11:15.663Z,10720
2016-09-29T13:12:14.617Z,10660
2016-09-29T13:13:13.960Z,10768
2016-09-29T13:14:14.589Z,11036
2016-09-29T13:15:14.798Z,11276
2016-09-29T13:16:15.254Z,10800
2016-09-29T13:17:16.200Z,11724
2016-09-29T13:18:14.915Z,11796
2016-09-29T13:19:14.983Z,11892
2016-09-29T13:20:15.599Z,12532
2016-09-29T13:21:15.591Z,12764
2016-09-29T13:22:14.811Z,13016
2016-09-29T13:23:14.458Z,13128
2016-09-29T13:24:14.557Z,11884
2016-09-29T13:25:16.102Z,9156
2016-09-29T13:26:16.246Z,9148
2016-09-29T13:27:15.917Z,9348
2016-09-29T13:28:15.214Z,10360
2016-09-29T13:29:15.498Z,8416
2016-09-29T13:30:15.655Z,7444
2016-09-29T13:31:16.076Z,7572
2016-09-29T13:32:15.404Z,7148
2016-09-29T13:33:15.227Z,9044
2016-09-29T13:34:14.614Z,9016
2016-09-29T13:35:15.932Z,8624
2016-09-29T13:36:15.384Z,11212
2016-09-29T13:37:17.150Z,12400
2016-09-29T13:38:16.029Z,12368